createdAt,value
2022-11-27T00:01:34.133Z,6.75
2022-11-27T00:04:02.504Z,6.73
2022-11-27T00:06:31.773Z,6.76
2022-11-27T00:09:03.279Z,6.75
2022-11-27T00:11:32.504Z,6.80
2022-11-27T00:14:01.511Z,6.82
2022-11-27T00:16:30.308Z,6.82
2022-11-27T00:18:58.849Z,6.83
2022-11-27T00:21:29.081Z,6.83
2022-11-27T00:23:59.326Z,6.85
2022-11-27T00:26:35.999Z,6.82
2022-11-27T00:29:06.919Z,6.87
2022-11-27T00:31:37.776Z,6.90
2022-11-27T00:34:08.701Z,6.91
2022-11-27T00:36:37.849Z,6.96
2022-11-27T00:39:07.264Z,6.97
2022-11-27T00:41:37.961Z,7.00
2022-11-27T00:44:06.743Z,7.02
2022-11-27T00:46:36.041Z,7.07
2022-11-27T00:49:06.557Z,7.03
2022-11-27T00:51:35.511Z,7.07
2022-11-27T00:54:03.864Z,7.07
2022-11-27T00:56:34.034Z,7.07
2022-11-27T00:59:04.007Z,7.12
2022-11-27T01:01:33.911Z,7.10
2022-11-27T01:04:03.889Z,7.11
2022-11-27T01:06:32.453Z,7.12
2022-11-27T01:09:01.507Z,7.11
2022-11-27T01:11:31.435Z,7.13
2022-11-27T01:14:01.295Z,7.16
2022-11-27T01:16:33.044Z,7.10
2022-11-27T01:19:03.547Z,7.16
2022-11-27T01:21:34.172Z,7.19
2022-11-27T01:24:03.818Z,7.20
2022-11-27T01:26:32.601Z,7.24
2022-11-27T01:29:01.121Z,7.20
2022-11-27T01:31:34.118Z,7.24
2022-11-27T01:34:03.809Z,7.26
2022-11-27T01:36:32.779Z,7.29
2022-11-27T01:39:01.552Z,7.29
2022-11-27T01:41:31.995Z,7.29
2022-11-27T01:44:01.958Z,7.29
2022-11-27T01:46:36.173Z,7.30
2022-11-27T01:49:25.135Z,7.27
2022-11-27T01:51:57.630Z,7.27
2022-11-27T01:54:28.337Z,7.30
2022-11-27T01:57:00.646Z,7.32
2022-11-27T01:59:28.989Z,7.37
2022-11-27T02:01:58.575Z,7.38
2022-11-27T02:04:26.831Z,7.39
2022-11-27T02:06:57.523Z,7.41
2022-11-27T02:09:25.903Z,7.41
2022-11-27T02:12:00.830Z,7.43
2022-11-27T02:14:36.592Z,7.45
2022-11-27T02:17:11.315Z,7.47
2022-11-27T02:19:55.022Z,7.47
2022-11-27T02:22:40.219Z,7.53
2022-11-27T02:25:22.813Z,7.56
2022-11-27T02:28:11.631Z,7.50
2022-11-27T02:30:47.780Z,7.49
2022-11-27T02:33:21.165Z,7.48
2022-11-27T02:35:53.536Z,7.53
2022-11-27T02:38:26.911Z,7.49
2022-11-27T02:40:58.184Z,7.50
2022-11-27T02:43:30.506Z,7.50
2022-11-27T02:46:01.445Z,7.53
2022-11-27T02:48:35.711Z,7.56
2022-11-27T02:51:05.037Z,7.55
2022-11-27T02:53:38.030Z,7.56
2022-11-27T02:56:11.561Z,7.56
2022-11-27T02:58:41.460Z,7.54
2022-11-27T03:01:13.252Z,7.50
2022-11-27T03:03:45.048Z,7.53
2022-11-27T03:06:17.626Z,7.47
2022-11-27T03:08:53.307Z,7.49
2022-11-27T03:11:21.810Z,7.49
2022-11-27T03:13:53.815Z,7.48
2022-11-27T03:16:34.577Z,7.50
2022-11-27T03:19:12.877Z,7.48
2022-11-27T03:21:43.218Z,7.50
2022-11-27T03:24:12.150Z,7.46
2022-11-27T03:26:41.702Z,7.46
2022-11-27T03:29:14.825Z,7.42
2022-11-27T03:31:44.789Z,7.41
2022-11-27T03:34:13.302Z,7.43
2022-11-27T03:36:41.539Z,7.41
2022-11-27T03:39:10.447Z,7.41
2022-11-27T03:41:45.362Z,7.34
2022-11-27T03:44:23.669Z,7.30
2022-11-27T03:47:01.690Z,7.26
2022-11-27T03:49:41.774Z,7.17
2022-11-27T03:52:17.169Z,7.14
2022-11-27T03:54:55.873Z,7.13
2022-11-27T03:57:31.241Z,7.13
2022-11-27T04:00:02.852Z,7.09
2022-11-27T04:02:43.437Z,7.04
2022-11-27T04:05:12.218Z,7.03
2022-11-27T04:07:40.481Z,7.02
2022-11-27T04:10:10.267Z,6.99
2022-11-27T04:12:38.550Z,6.95
2022-11-27T04:15:08.165Z,6.87
2022-11-27T04:17:36.316Z,6.84
2022-11-27T04:20:07.672Z,6.74
2022-11-27T04:22:35.854Z,6.71
2022-11-27T04:25:03.981Z,6.66
2022-11-27T04:27:32.090Z,6.66
2022-11-27T04:30:00.375Z,6.64
2022-11-27T04:32:28.488Z,6.59
2022-11-27T04:34:56.634Z,6.56
2022-11-27T04:37:26.149Z,6.56
2022-11-27T04:39:54.265Z,6.55
2022-11-27T04:42:22.416Z,6.55
2022-11-27T04:44:50.566Z,6.53
2022-11-27T04:47:18.709Z,6.55
2022-11-27T04:49:47.083Z,6.54
2022-11-27T04:52:15.357Z,6.51
2022-11-27T04:54:45.231Z,6.51
2022-11-27T04:57:13.406Z,6.51
2022-11-27T04:59:41.477Z,6.51
2022-11-27T05:02:09.719Z,6.50
2022-11-27T05:04:37.969Z,6.46
2022-11-27T05:07:06.167Z,6.49
2022-11-27T05:09:34.315Z,6.44
2022-11-27T05:12:03.965Z,6.42
2022-11-27T05:14:32.091Z,6.40
2022-11-27T05:17:00.636Z,6.38
2022-11-27T05:19:30.442Z,6.40
2022-11-27T05:21:58.962Z,6.38
2022-11-27T05:24:28.659Z,6.39
2022-11-27T05:26:57.716Z,6.42
2022-11-27T05:29:27.551Z,6.39
2022-11-27T05:31:55.719Z,6.42
2022-11-27T05:34:23.986Z,6.40
2022-11-27T05:36:52.292Z,6.42
2022-11-27T05:39:20.366Z,6.40
2022-11-27T05:41:48.735Z,6.40
2022-11-27T05:44:16.963Z,6.39
2022-11-27T05:46:46.550Z,6.41
2022-11-27T05:49:16.153Z,6.40
2022-11-27T05:51:50.708Z,6.40
2022-11-27T05:54:19.756Z,6.43
2022-11-27T05:56:48.409Z,6.49
2022-11-27T05:59:16.609Z,6.42
2022-11-27T06:01:46.257Z,6.45
2022-11-27T06:04:14.521Z,6.45
2022-11-27T06:06:42.685Z,6.39
2022-11-27T06:09:13.079Z,6.45
2022-11-27T06:11:42.161Z,6.43
2022-11-27T06:14:11.268Z,6.43
2022-11-27T06:16:39.645Z,6.42
2022-11-27T06:19:10.022Z,6.45
2022-11-27T06:21:38.314Z,6.41
2022-11-27T06:24:06.883Z,6.41
2022-11-27T06:26:35.701Z,6.43
2022-11-27T06:29:03.952Z,6.42
2022-11-27T06:31:33.890Z,6.39
2022-11-27T06:34:02.751Z,6.41
2022-11-27T06:36:34.909Z,6.43
2022-11-27T06:39:04.118Z,6.41
2022-11-27T06:41:32.682Z,6.39
2022-11-27T06:44:02.508Z,6.38
2022-11-27T06:46:31.192Z,6.38
2022-11-27T06:49:00.064Z,6.41
2022-11-27T06:51:30.261Z,6.41
2022-11-27T06:54:02.890Z,6.39
2022-11-27T06:56:32.716Z,6.37
2022-11-27T06:59:02.598Z,6.37
2022-11-27T07:01:32.252Z,6.37
2022-11-27T07:04:01.209Z,6.43
2022-11-27T07:06:29.703Z,6.40
2022-11-27T07:08:59.497Z,6.43
2022-11-27T07:11:29.772Z,6.44
2022-11-27T07:14:00.303Z,6.44
2022-11-27T07:16:29.997Z,6.42
2022-11-27T07:19:01.484Z,6.43
2022-11-27T07:21:30.131Z,6.42
2022-11-27T07:24:00.051Z,6.43
2022-11-27T07:26:31.026Z,6.40
2022-11-27T07:28:59.386Z,6.40
2022-11-27T07:31:30.352Z,6.41
2022-11-27T07:33:59.266Z,6.40
2022-11-27T07:36:29.673Z,6.39
2022-11-27T07:38:59.213Z,6.38
2022-11-27T07:41:33.425Z,6.38
2022-11-27T07:44:01.970Z,6.39
2022-11-27T07:46:30.929Z,6.38
2022-11-27T07:49:00.590Z,6.38
2022-11-27T07:51:29.440Z,6.42
2022-11-27T07:54:00.688Z,6.43
2022-11-27T07:56:28.853Z,6.43
2022-11-27T07:58:58.056Z,6.45
2022-11-27T08:01:26.266Z,6.49
2022-11-27T08:03:54.434Z,6.46
2022-11-27T08:06:24.349Z,6.49
2022-11-27T08:08:53.512Z,6.49
2022-11-27T08:11:24.758Z,6.50
2022-11-27T08:13:57.524Z,6.49
2022-11-27T08:16:25.738Z,6.51
2022-11-27T08:18:54.141Z,6.51
2022-11-27T08:21:22.837Z,6.49
2022-11-27T08:23:51.180Z,6.54
2022-11-27T08:26:19.703Z,6.57
2022-11-27T08:28:49.388Z,6.53
2022-11-27T08:31:18.192Z,6.53
2022-11-27T08:33:46.524Z,6.56
2022-11-27T08:36:18.128Z,6.58
2022-11-27T08:38:47.059Z,6.56
2022-11-27T08:41:15.484Z,6.55
2022-11-27T08:43:43.669Z,6.53
2022-11-27T08:46:13.251Z,6.58
2022-11-27T08:48:41.965Z,6.59
2022-11-27T08:51:12.318Z,6.57
2022-11-27T08:53:41.333Z,6.59
2022-11-27T08:56:12.627Z,6.57
2022-11-27T08:58:41.090Z,6.59
2022-11-27T09:01:12.259Z,6.58
2022-11-27T09:03:41.895Z,6.64
2022-11-27T09:06:11.454Z,6.68
2022-11-27T09:08:40.250Z,6.66
2022-11-27T09:11:09.211Z,6.72
2022-11-27T09:13:39.238Z,6.78
2022-11-27T09:16:09.507Z,6.78
2022-11-27T09:18:37.769Z,6.82
2022-11-27T09:21:09.980Z,6.82
2022-11-27T09:23:39.118Z,6.82
2022-11-27T09:26:10.216Z,6.85
2022-11-27T09:28:39.469Z,6.82
2022-11-27T09:31:09.987Z,6.78
2022-11-27T09:33:39.731Z,6.79
2022-11-27T09:36:11.717Z,6.83
2022-11-27T09:38:39.980Z,6.82
2022-11-27T09:41:36.601Z,6.79
2022-11-27T09:44:11.686Z,6.83
2022-11-27T09:46:42.635Z,6.81
2022-11-27T09:49:17.009Z,6.84
2022-11-27T09:51:52.169Z,6.81
2022-11-27T09:54:25.858Z,6.82
2022-11-27T09:56:56.566Z,6.82
2022-11-27T09:59:30.610Z,6.81
2022-11-27T10:01:58.841Z,6.80
2022-11-27T10:04:30.365Z,6.80
2022-11-27T10:07:22.078Z,6.79
2022-11-27T10:10:05.668Z,6.85
2022-11-27T10:12:41.768Z,6.86
2022-11-27T10:15:17.148Z,6.94
2022-11-27T10:17:52.199Z,6.90
2022-11-27T10:20:29.560Z,6.84
2022-11-27T10:23:03.368Z,6.90
2022-11-27T10:25:39.932Z,6.93
2022-11-27T10:28:21.512Z,6.96
2022-11-27T10:30:55.228Z,6.98
2022-11-27T10:33:28.036Z,7.04
2022-11-27T10:35:56.428Z,7.08
2022-11-27T10:38:29.064Z,7.14
2022-11-27T10:41:07.860Z,7.12
2022-11-27T10:43:37.843Z,7.16
2022-11-27T10:46:13.723Z,7.09
2022-11-27T10:48:42.270Z,7.22
2022-11-27T10:51:16.274Z,7.38
2022-11-27T10:53:49.072Z,7.42
2022-11-27T10:56:36.676Z,7.43
2022-11-27T10:59:07.639Z,7.41
2022-11-27T11:01:44.516Z,7.45
2022-11-27T11:04:36.231Z,7.49
2022-11-27T11:07:03.230Z,7.37
2022-11-27T11:09:36.469Z,7.47
2022-11-27T11:12:09.141Z,7.53
2022-11-27T11:14:37.684Z,7.54
2022-11-27T11:17:16.856Z,7.60
2022-11-27T11:19:45.964Z,7.65
2022-11-27T11:22:16.891Z,7.62
2022-11-27T11:24:48.823Z,7.55
2022-11-27T11:27:21.317Z,7.69
2022-11-27T11:29:52.544Z,7.67
2022-11-27T11:32:25.008Z,7.61
2022-11-27T11:35:01.133Z,7.59
2022-11-27T11:37:32.066Z,7.49
2022-11-27T11:40:05.273Z,7.53
2022-11-27T11:42:36.449Z,7.49
2022-11-27T11:45:07.601Z,7.46
2022-11-27T11:47:36.908Z,7.49
2022-11-27T11:50:06.498Z,7.55
2022-11-27T11:52:50.008Z,7.55
2022-11-27T11:55:27.388Z,7.56
2022-11-27T11:58:22.229Z,7.60
2022-11-27T12:01:25.441Z,7.63
2022-11-27T12:04:03.172Z,7.61
2022-11-27T12:06:41.610Z,7.67
2022-11-27T12:09:26.370Z,7.71
2022-11-27T12:12:02.252Z,7.55
2022-11-27T12:14:43.128Z,7.54
2022-11-27T12:17:25.488Z,7.61
2022-11-27T12:20:15.917Z,7.55
2022-11-27T12:23:08.971Z,7.47
2022-11-27T12:25:39.642Z,7.45
2022-11-27T12:28:28.521Z,7.46
2022-11-27T12:31:07.326Z,7.59
2022-11-27T12:33:53.824Z,7.60
2022-11-27T12:36:29.862Z,7.54
2022-11-27T12:39:11.561Z,7.58
2022-11-27T12:41:51.592Z,7.50
2022-11-27T12:44:28.486Z,7.62
2022-11-27T12:47:01.708Z,7.65
2022-11-27T12:49:34.507Z,7.77
2022-11-27T12:52:11.103Z,7.78
2022-11-27T12:54:47.865Z,7.88
2022-11-27T12:57:20.191Z,7.89
2022-11-27T12:59:54.994Z,7.96
2022-11-27T13:02:30.221Z,7.96
2022-11-27T13:05:02.652Z,7.93
2022-11-27T13:07:40.276Z,7.98
2022-11-27T13:10:20.438Z,7.92
2022-11-27T13:12:55.052Z,7.86
2022-11-27T13:15:30.626Z,7.85
2022-11-27T13:18:06.510Z,7.86
2022-11-27T13:20:39.454Z,7.88
2022-11-27T13:23:07.623Z,7.85
2022-11-27T13:25:41.871Z,7.85
2022-11-27T13:28:17.706Z,7.85
2022-11-27T13:30:49.091Z,7.84
2022-11-27T13:33:33.925Z,7.75
2022-11-27T13:36:04.470Z,7.70
2022-11-27T13:38:34.306Z,7.61
2022-11-27T13:41:05.601Z,7.56
2022-11-27T13:43:43.469Z,7.58
2022-11-27T13:46:19.482Z,7.53
2022-11-27T13:48:51.388Z,7.48
2022-11-27T13:51:29.099Z,7.42
2022-11-27T13:54:09.384Z,7.45
2022-11-27T13:56:37.962Z,7.43
2022-11-27T13:59:20.753Z,7.45
2022-11-27T14:01:59.115Z,7.43
2022-11-27T14:04:28.124Z,7.41
2022-11-27T14:07:03.204Z,7.39
2022-11-27T14:09:38.052Z,7.43
2022-11-27T14:12:20.310Z,7.44
2022-11-27T14:15:01.505Z,7.42
2022-11-27T14:17:38.774Z,7.41
2022-11-27T14:20:21.339Z,7.45
2022-11-27T14:23:11.294Z,7.47
2022-11-27T14:25:39.710Z,7.48
2022-11-27T14:28:16.104Z,7.50
2022-11-27T14:30:49.470Z,7.52
2022-11-27T14:33:22.146Z,7.49
2022-11-27T14:35:51.936Z,7.45
2022-11-27T14:38:20.493Z,7.50
2022-11-27T14:40:49.826Z,7.53
2022-11-27T14:43:23.828Z,7.54
2022-11-27T14:45:54.230Z,7.59
2022-11-27T14:48:25.688Z,7.53
2022-11-27T14:50:55.950Z,7.58
2022-11-27T14:53:27.380Z,7.60
2022-11-27T14:55:58.720Z,7.59
2022-11-27T14:58:29.247Z,7.59
2022-11-27T15:01:01.261Z,7.60
2022-11-27T15:03:31.097Z,7.61
2022-11-27T15:06:00.786Z,7.65
2022-11-27T15:08:30.934Z,7.65
2022-11-27T15:11:00.727Z,7.64
2022-11-27T15:13:32.308Z,7.65
2022-11-27T15:16:04.898Z,7.64
2022-11-27T15:18:38.403Z,7.67
2022-11-27T15:21:12.364Z,7.67
2022-11-27T15:23:46.045Z,7.63
2022-11-27T15:26:21.154Z,7.63
2022-11-27T15:28:54.795Z,7.60
2022-11-27T15:31:26.543Z,7.60
2022-11-27T15:34:02.676Z,7.57
2022-11-27T15:36:39.757Z,7.56
2022-11-27T15:39:36.209Z,7.53
2022-11-27T15:42:07.046Z,7.49
2022-11-27T15:44:35.430Z,7.44
2022-11-27T15:47:05.621Z,7.43
2022-11-27T15:49:35.189Z,7.46
2022-11-27T15:52:03.389Z,7.43
2022-11-27T15:54:32.912Z,7.39
2022-11-27T15:57:01.088Z,7.37
2022-11-27T15:59:29.454Z,7.37
2022-11-27T16:01:58.074Z,7.33
2022-11-27T16:04:26.331Z,7.31
2022-11-27T16:06:55.974Z,7.30
2022-11-27T16:09:24.339Z,7.32
2022-11-27T16:11:52.610Z,7.28
2022-11-27T16:14:20.819Z,7.24
2022-11-27T16:16:49.048Z,7.24
2022-11-27T16:19:17.700Z,7.24
2022-11-27T16:21:45.957Z,7.23
2022-11-27T16:24:16.195Z,7.24
2022-11-27T16:26:47.441Z,7.25
2022-11-27T16:29:15.704Z,7.20
2022-11-27T16:31:44.010Z,7.13
2022-11-27T16:34:13.022Z,7.15
2022-11-27T16:36:42.243Z,7.15
2022-11-27T16:39:11.893Z,7.12
2022-11-27T16:41:42.127Z,7.16
2022-11-27T16:44:12.583Z,7.20
2022-11-27T16:46:41.413Z,7.22
2022-11-27T16:49:09.910Z,7.25
2022-11-27T16:51:40.542Z,7.14
2022-11-27T16:54:13.361Z,7.20
2022-11-27T16:56:45.882Z,7.23
2022-11-27T16:59:16.880Z,7.24
2022-11-27T17:01:45.271Z,7.18
2022-11-27T17:04:18.206Z,7.14
2022-11-27T17:06:47.758Z,7.16
2022-11-27T17:09:16.595Z,7.16
2022-11-27T17:11:49.277Z,7.15
2022-11-27T17:14:20.132Z,7.16
2022-11-27T17:16:48.558Z,7.15
2022-11-27T17:19:17.521Z,7.17
2022-11-27T17:21:47.086Z,7.15
2022-11-27T17:24:17.133Z,7.14
2022-11-27T17:26:49.487Z,7.15
2022-11-27T17:29:20.928Z,7.15
2022-11-27T17:31:51.553Z,7.14
2022-11-27T17:34:20.692Z,7.17
2022-11-27T17:36:53.525Z,7.13
2022-11-27T17:39:22.403Z,7.14
2022-11-27T17:41:52.081Z,7.14
2022-11-27T17:44:20.460Z,7.10
2022-11-27T17:46:50.616Z,7.12
2022-11-27T17:49:22.105Z,7.13
2022-11-27T17:51:51.399Z,7.12
2022-11-27T17:54:20.553Z,7.13
2022-11-27T17:56:51.576Z,7.04
2022-11-27T17:59:22.378Z,7.07
2022-11-27T18:01:53.062Z,7.05
2022-11-27T18:04:22.282Z,7.07
2022-11-27T18:06:51.520Z,7.05
2022-11-27T18:09:21.928Z,7.08
2022-11-27T18:11:50.243Z,7.09
2022-11-27T18:14:19.340Z,7.09
2022-11-27T18:16:49.038Z,7.08
2022-11-27T18:19:20.560Z,7.08
2022-11-27T18:21:50.276Z,7.10
2022-11-27T18:24:24.075Z,7.10
2022-11-27T18:27:11.793Z,7.07
2022-11-27T18:29:42.832Z,7.05
2022-11-27T18:32:14.017Z,7.07
2022-11-27T18:34:46.027Z,7.04
2022-11-27T18:37:14.681Z,7.01
2022-11-27T18:39:49.882Z,7.07
2022-11-27T18:42:18.057Z,7.00
2022-11-27T18:44:51.976Z,7.00
2022-11-27T18:47:21.960Z,6.99
2022-11-27T18:49:50.268Z,7.02
2022-11-27T18:52:22.037Z,7.02
2022-11-27T18:54:53.151Z,7.00
2022-11-27T18:57:21.659Z,6.98
2022-11-27T18:59:52.283Z,6.99
2022-11-27T19:02:22.152Z,6.98
2022-11-27T19:04:50.632Z,6.98
2022-11-27T19:07:19.112Z,7.02
2022-11-27T19:09:47.510Z,7.00
2022-11-27T19:12:16.043Z,7.02
2022-11-27T19:14:44.790Z,7.02
2022-11-27T19:17:15.657Z,7.02
2022-11-27T19:19:54.540Z,7.05
2022-11-27T19:22:34.200Z,7.02
2022-11-27T19:25:02.821Z,7.02
2022-11-27T19:27:32.788Z,7.05
2022-11-27T19:30:01.041Z,7.05
2022-11-27T19:32:29.740Z,7.04
2022-11-27T19:35:03.068Z,7.07
2022-11-27T19:37:36.986Z,7.07
2022-11-27T19:40:08.370Z,7.08
2022-11-27T19:42:38.029Z,7.10
2022-11-27T19:45:08.057Z,7.10
2022-11-27T19:47:36.587Z,7.15
2022-11-27T19:50:07.901Z,7.17
2022-11-27T19:52:36.196Z,7.18
2022-11-27T19:55:07.316Z,7.20
2022-11-27T19:57:36.272Z,7.24
2022-11-27T20:00:07.508Z,7.27
2022-11-27T20:02:42.486Z,7.27
2022-11-27T20:05:14.398Z,7.29
2022-11-27T20:07:45.850Z,7.32
2022-11-27T20:10:14.350Z,7.33
2022-11-27T20:12:42.909Z,7.40
2022-11-27T20:15:14.413Z,7.42
2022-11-27T20:17:43.708Z,7.43
2022-11-27T20:20:17.647Z,7.47
2022-11-27T20:22:46.274Z,7.49
2022-11-27T20:25:19.836Z,7.53
2022-11-27T20:27:49.685Z,7.53
2022-11-27T20:30:18.172Z,7.57
2022-11-27T20:32:47.335Z,7.60
2022-11-27T20:35:17.864Z,7.63
2022-11-27T20:37:46.063Z,7.63
2022-11-27T20:40:14.689Z,7.64
2022-11-27T20:42:43.047Z,7.69
2022-11-27T20:45:16.216Z,7.71
2022-11-27T20:47:47.446Z,7.70
2022-11-27T20:50:17.068Z,7.75
2022-11-27T20:52:45.606Z,7.75
2022-11-27T20:55:14.675Z,7.74
2022-11-27T20:57:42.984Z,7.81
2022-11-27T21:00:12.346Z,7.82
2022-11-27T21:02:41.757Z,7.82
2022-11-27T21:05:10.838Z,7.83
2022-11-27T21:07:42.476Z,7.83
2022-11-27T21:10:14.308Z,7.84
2022-11-27T21:12:43.395Z,7.83
2022-11-27T21:15:13.119Z,7.89
2022-11-27T21:17:41.637Z,7.90
2022-11-27T21:20:14.392Z,7.91
2022-11-27T21:22:44.168Z,7.89
2022-11-27T21:25:12.487Z,7.92
2022-11-27T21:27:40.791Z,7.93
2022-11-27T21:30:09.780Z,7.94
2022-11-27T21:32:38.443Z,7.99
2022-11-27T21:35:08.943Z,8.00
2022-11-27T21:37:39.722Z,8.00
2022-11-27T21:40:11.695Z,8.02
2022-11-27T21:42:44.353Z,8.06
2022-11-27T21:45:15.917Z,8.06
2022-11-27T21:47:44.313Z,8.09
2022-11-27T21:50:15.551Z,8.06
2022-11-27T21:52:46.322Z,8.12
2022-11-27T21:55:16.017Z,8.12
2022-11-27T21:57:44.271Z,8.07
2022-11-27T22:00:13.880Z,8.09
2022-11-27T22:02:45.285Z,8.09
2022-11-27T22:05:13.582Z,8.11
2022-11-27T22:07:41.789Z,8.13
2022-11-27T22:10:11.305Z,8.13
2022-11-27T22:12:42.681Z,8.12
2022-11-27T22:15:12.306Z,8.11
2022-11-27T22:17:40.734Z,8.14
2022-11-27T22:20:09.790Z,8.14
2022-11-27T22:22:38.698Z,8.09
2022-11-27T22:25:07.370Z,8.12
2022-11-27T22:27:37.960Z,8.16
2022-11-27T22:30:09.563Z,8.17
2022-11-27T22:32:38.346Z,8.15
2022-11-27T22:35:07.452Z,8.21
2022-11-27T22:37:35.620Z,8.22
2022-11-27T22:40:04.690Z,8.23
2022-11-27T22:42:33.684Z,8.26
2022-11-27T22:45:01.944Z,8.28
2022-11-27T22:47:32.434Z,8.30
2022-11-27T22:50:00.598Z,8.30
2022-11-27T22:52:30.010Z,8.30
2022-11-27T22:54:58.529Z,8.32
2022-11-27T22:57:26.845Z,8.32
2022-11-27T22:59:55.187Z,8.32
2022-11-27T23:02:23.505Z,8.32
2022-11-27T23:04:53.111Z,8.32
2022-11-27T23:07:25.118Z,8.33
2022-11-27T23:09:54.181Z,8.33
2022-11-27T23:12:22.485Z,8.32
2022-11-27T23:14:50.663Z,8.32
2022-11-27T23:17:18.838Z,8.31
2022-11-27T23:19:46.980Z,8.33
2022-11-27T23:22:16.521Z,8.28
2022-11-27T23:24:44.871Z,8.21
2022-11-27T23:27:13.029Z,8.21
2022-11-27T23:29:41.161Z,8.21
2022-11-27T23:32:09.341Z,8.22
2022-11-27T23:34:37.663Z,8.21
2022-11-27T23:37:06.549Z,8.18
2022-11-27T23:39:36.120Z,8.19
2022-11-27T23:42:05.261Z,8.14
2022-11-27T23:44:33.749Z,8.15
2022-11-27T23:47:02.012Z,8.17
2022-11-27T23:49:30.706Z,8.15
2022-11-27T23:51:59.351Z,8.06
2022-11-27T23:54:27.693Z,8.06
2022-11-27T23:56:57.364Z,8.04
2022-11-27T23:59:25.567Z,8.02
